sensor_id;sensor_type;location;lat;lon;timestamp;temperature;humidity
43679;DHT22;29279;50.858;4.392;2022-11-09T00:02:13;15.10;99.90
43679;DHT22;29279;50.858;4.392;2022-11-09T00:04:39;15.20;99.90
43679;DHT22;29279;50.858;4.392;2022-11-09T00:07:04;15.20;99.90
43679;DHT22;29279;50.858;4.392;2022-11-09T00:09:30;15.20;99.90
43679;DHT22;29279;50.858;4.392;2022-11-09T00:11:56;15.10;99.90
43679;DHT22;29279;50.858;4.392;2022-11-09T00:14:21;15.00;99.90
43679;DHT22;29279;50.858;4.392;2022-11-09T00:16:47;15.00;99.90
43679;DHT22;29279;50.858;4.392;2022-11-09T00:19:13;15.00;99.90
43679;DHT22;29279;50.858;4.392;2022-11-09T00:21:39;15.00;99.90
43679;DHT22;29279;50.858;4.392;2022-11-09T00:24:05;15.00;99.90
43679;DHT22;29279;50.858;4.392;2022-11-09T00:26:31;14.90;99.90
43679;DHT22;29279;50.858;4.392;2022-11-09T00:28:56;14.90;99.90
43679;DHT22;29279;50.858;4.392;2022-11-09T00:31:23;15.00;99.90
43679;DHT22;29279;50.858;4.392;2022-11-09T00:33:53;14.90;99.90
43679;DHT22;29279;50.858;4.392;2022-11-09T00:36:19;14.70;99.90
43679;DHT22;29279;50.858;4.392;2022-11-09T00:38:50;14.70;99.90
43679;DHT22;29279;50.858;4.392;2022-11-09T00:41:16;14.60;99.90
43679;DHT22;29279;50.858;4.392;2022-11-09T00:43:42;14.60;99.90
43679;DHT22;29279;50.858;4.392;2022-11-09T00:46:08;14.60;99.90
43679;DHT22;29279;50.858;4.392;2022-11-09T00:48:35;14.50;99.90
43679;DHT22;29279;50.858;4.392;2022-11-09T00:51:02;14.40;99.90
43679;DHT22;29279;50.858;4.392;2022-11-09T00:53:29;14.50;99.90
43679;DHT22;29279;50.858;4.392;2022-11-09T00:56:00;14.40;99.90
43679;DHT22;29279;50.858;4.392;2022-11-09T00:58:27;14.40;99.90
43679;DHT22;29279;50.858;4.392;2022-11-09T01:00:54;14.30;99.90
43679;DHT22;29279;50.858;4.392;2022-11-09T01:03:21;14.30;99.90
43679;DHT22;29279;50.858;4.392;2022-11-09T01:05:47;14.20;99.90
43679;DHT22;29279;50.858;4.392;2022-11-09T01:08:13;14.20;99.90
43679;DHT22;29279;50.858;4.392;2022-11-09T01:10:40;14.20;99.90
43679;DHT22;29279;50.858;4.392;2022-11-09T01:13:07;14.20;99.90
43679;DHT22;29279;50.858;4.392;2022-11-09T01:15:32;14.30;99.90
43679;DHT22;29279;50.858;4.392;2022-11-09T01:17:58;14.20;99.90
43679;DHT22;29279;50.858;4.392;2022-11-09T01:20:24;14.20;99.90
43679;DHT22;29279;50.858;4.392;2022-11-09T01:22:49;14.10;99.90
43679;DHT22;29279;50.858;4.392;2022-11-09T01:25:15;14.20;99.90
43679;DHT22;29279;50.858;4.392;2022-11-09T01:27:41;14.30;99.90
43679;DHT22;29279;50.858;4.392;2022-11-09T01:30:07;14.20;99.90
43679;DHT22;29279;50.858;4.392;2022-11-09T01:32:32;14.30;99.90
43679;DHT22;29279;50.858;4.392;2022-11-09T01:34:58;14.30;99.90
43679;DHT22;29279;50.858;4.392;2022-11-09T01:37:24;14.40;99.90
43679;DHT22;29279;50.858;4.392;2022-11-09T01:39:49;14.30;99.90
43679;DHT22;29279;50.858;4.392;2022-11-09T01:42:22;14.40;99.90
43679;DHT22;29279;50.858;4.392;2022-11-09T01:44:48;14.40;99.90
43679;DHT22;29279;50.858;4.392;2022-11-09T01:47:33;14.40;99.90
43679;DHT22;29279;50.858;4.392;2022-11-09T01:50:02;14.40;99.90
43679;DHT22;29279;50.858;4.392;2022-11-09T01:52:34;14.40;99.90
43679;DHT22;29279;50.858;4.392;2022-11-09T01:55:15;14.50;99.90
43679;DHT22;29279;50.858;4.392;2022-11-09T01:57:51;14.40;99.90
43679;DHT22;29279;50.858;4.392;2022-11-09T02:00:18;14.40;99.90
43679;DHT22;29279;50.858;4.392;2022-11-09T02:02:56;14.50;99.90
43679;DHT22;29279;50.858;4.392;2022-11-09T02:05:25;14.40;99.90
43679;DHT22;29279;50.858;4.392;2022-11-09T02:07:53;14.30;99.90
43679;DHT22;29279;50.858;4.392;2022-11-09T02:10:27;14.30;99.90
43679;DHT22;29279;50.858;4.392;2022-11-09T02:12:53;14.30;99.90
43679;DHT22;29279;50.858;4.392;2022-11-09T02:15:20;14.30;99.90
43679;DHT22;29279;50.858;4.392;2022-11-09T02:17:50;14.10;99.90
43679;DHT22;29279;50.858;4.392;2022-11-09T02:20:16;14.10;99.90
43679;DHT22;29279;50.858;4.392;2022-11-09T02:22:42;13.90;99.90
43679;DHT22;29279;50.858;4.392;2022-11-09T02:25:10;13.90;99.90
43679;DHT22;29279;50.858;4.392;2022-11-09T02:27:36;13.80;99.90
43679;DHT22;29279;50.858;4.392;2022-11-09T02:30:03;13.80;99.90
43679;DHT22;29279;50.858;4.392;2022-11-09T02:32:32;13.80;99.90
43679;DHT22;29279;50.858;4.392;2022-11-09T02:34:58;13.80;99.90
43679;DHT22;29279;50.858;4.392;2022-11-09T02:39:54;13.80;99.90
43679;DHT22;29279;50.858;4.392;2022-11-09T02:42:22;13.80;99.90
43679;DHT22;29279;50.858;4.392;2022-11-09T02:44:52;13.90;99.90
43679;DHT22;29279;50.858;4.392;2022-11-09T02:47:19;13.90;99.90
43679;DHT22;29279;50.858;4.392;2022-11-09T02:49:45;13.90;99.90
43679;DHT22;29279;50.858;4.392;2022-11-09T02:52:11;13.90;99.90
43679;DHT22;29279;50.858;4.392;2022-11-09T02:54:36;13.80;99.90
43679;DHT22;29279;50.858;4.392;2022-11-09T02:57:02;13.90;99.90
43679;DHT22;29279;50.858;4.392;2022-11-09T02:59:28;13.90;99.90
43679;DHT22;29279;50.858;4.392;2022-11-09T03:01:53;14.00;99.90
43679;DHT22;29279;50.858;4.392;2022-11-09T03:04:19;13.90;99.90
43679;DHT22;29279;50.858;4.392;2022-11-09T03:06:45;13.80;99.90
43679;DHT22;29279;50.858;4.392;2022-11-09T03:09:11;13.80;99.90
43679;DHT22;29279;50.858;4.392;2022-11-09T03:11:42;14.00;99.90
43679;DHT22;29279;50.858;4.392;2022-11-09T03:14:10;13.90;99.90
43679;DHT22;29279;50.858;4.392;2022-11-09T03:16:37;13.90;99.90
43679;DHT22;29279;50.858;4.392;2022-11-09T03:19:03;13.90;99.90
43679;DHT22;29279;50.858;4.392;2022-11-09T03:21:29;13.80;99.90
43679;DHT22;29279;50.858;4.392;2022-11-09T03:23:55;13.70;99.90
43679;DHT22;29279;50.858;4.392;2022-11-09T03:26:21;13.80;99.90
43679;DHT22;29279;50.858;4.392;2022-11-09T03:28:50;13.70;99.90
43679;DHT22;29279;50.858;4.392;2022-11-09T03:31:16;13.80;99.90
43679;DHT22;29279;50.858;4.392;2022-11-09T03:33:41;13.80;99.90
43679;DHT22;29279;50.858;4.392;2022-11-09T03:36:07;13.80;99.90
43679;DHT22;29279;50.858;4.392;2022-11-09T03:38:33;14.00;99.90
43679;DHT22;29279;50.858;4.392;2022-11-09T03:41:00;14.00;99.90
43679;DHT22;29279;50.858;4.392;2022-11-09T03:43:27;14.00;99.90
43679;DHT22;29279;50.858;4.392;2022-11-09T03:45:53;14.00;99.90
43679;DHT22;29279;50.858;4.392;2022-11-09T03:48:19;13.90;99.90
43679;DHT22;29279;50.858;4.392;2022-11-09T03:50:44;13.80;99.90
43679;DHT22;29279;50.858;4.392;2022-11-09T03:53:11;13.70;99.90
43679;DHT22;29279;50.858;4.392;2022-11-09T03:55:38;13.60;99.90
43679;DHT22;29279;50.858;4.392;2022-11-09T03:58:05;13.50;99.90
43679;DHT22;29279;50.858;4.392;2022-11-09T04:00:31;13.50;99.90
43679;DHT22;29279;50.858;4.392;2022-11-09T04:02:57;13.50;99.90
43679;DHT22;29279;50.858;4.392;2022-11-09T04:05:23;13.50;99.90
43679;DHT22;29279;50.858;4.392;2022-11-09T04:07:51;13.50;99.90
43679;DHT22;29279;50.858;4.392;2022-11-09T04:10:18;13.40;99.90
43679;DHT22;29279;50.858;4.392;2022-11-09T04:12:44;13.40;99.90
43679;DHT22;29279;50.858;4.392;2022-11-09T04:15:10;13.50;99.90
43679;DHT22;29279;50.858;4.392;2022-11-09T04:17:36;13.50;99.90
43679;DHT22;29279;50.858;4.392;2022-11-09T04:20:02;13.50;99.90
43679;DHT22;29279;50.858;4.392;2022-11-09T04:22:28;13.30;99.90
43679;DHT22;29279;50.858;4.392;2022-11-09T04:24:54;13.30;99.90
43679;DHT22;29279;50.858;4.392;2022-11-09T04:27:20;13.40;99.90
43679;DHT22;29279;50.858;4.392;2022-11-09T04:29:45;13.40;99.90
43679;DHT22;29279;50.858;4.392;2022-11-09T04:32:14;13.40;99.90
43679;DHT22;29279;50.858;4.392;2022-11-09T04:34:39;13.40;99.90
43679;DHT22;29279;50.858;4.392;2022-11-09T04:37:08;13.40;99.90
43679;DHT22;29279;50.858;4.392;2022-11-09T04:39:34;13.40;99.90
43679;DHT22;29279;50.858;4.392;2022-11-09T04:42:00;13.30;99.90
43679;DHT22;29279;50.858;4.392;2022-11-09T04:44:26;13.40;99.90
43679;DHT22;29279;50.858;4.392;2022-11-09T04:46:53;13.40;99.90
43679;DHT22;29279;50.858;4.392;2022-11-09T04:49:19;13.30;99.90
43679;DHT22;29279;50.858;4.392;2022-11-09T04:51:45;13.30;99.90
43679;DHT22;29279;50.858;4.392;2022-11-09T04:54:10;13.30;99.90
43679;DHT22;29279;50.858;4.392;2022-11-09T04:56:36;13.40;99.90
43679;DHT22;29279;50.858;4.392;2022-11-09T04:59:02;13.40;99.90
43679;DHT22;29279;50.858;4.392;2022-11-09T05:01:27;13.30;99.90
43679;DHT22;29279;50.858;4.392;2022-11-09T05:03:53;13.30;99.90
43679;DHT22;29279;50.858;4.392;2022-11-09T05:06:19;13.20;99.90
43679;DHT22;29279;50.858;4.392;2022-11-09T05:09:01;13.10;99.90
43679;DHT22;29279;50.858;4.392;2022-11-09T05:11:27;13.10;99.90
43679;DHT22;29279;50.858;4.392;2022-11-09T05:13:53;13.10;99.90
43679;DHT22;29279;50.858;4.392;2022-11-09T05:16:20;13.10;99.90
43679;DHT22;29279;50.858;4.392;2022-11-09T05:18:46;13.20;99.90
43679;DHT22;29279;50.858;4.392;2022-11-09T05:21:12;13.20;99.90
43679;DHT22;29279;50.858;4.392;2022-11-09T05:23:37;13.20;99.90
43679;DHT22;29279;50.858;4.392;2022-11-09T05:26:22;13.20;99.90
43679;DHT22;29279;50.858;4.392;2022-11-09T05:28:47;13.20;99.90
43679;DHT22;29279;50.858;4.392;2022-11-09T05:31:13;13.20;99.90
43679;DHT22;29279;50.858;4.392;2022-11-09T05:33:39;13.20;99.90
43679;DHT22;29279;50.858;4.392;2022-11-09T05:36:05;13.20;99.90
43679;DHT22;29279;50.858;4.392;2022-11-09T05:38:31;13.20;99.90
43679;DHT22;29279;50.858;4.392;2022-11-09T05:40:56;13.10;99.90
43679;DHT22;29279;50.858;4.392;2022-11-09T05:43:22;13.00;99.90
43679;DHT22;29279;50.858;4.392;2022-11-09T05:45:48;13.00;99.90
43679;DHT22;29279;50.858;4.392;2022-11-09T05:48:16;13.00;99.90
43679;DHT22;29279;50.858;4.392;2022-11-09T05:50:42;12.90;99.90
43679;DHT22;29279;50.858;4.392;2022-11-09T05:53:08;13.00;99.90
43679;DHT22;29279;50.858;4.392;2022-11-09T05:55:34;13.00;99.90
43679;DHT22;29279;50.858;4.392;2022-11-09T05:58:00;12.90;99.90
43679;DHT22;29279;50.858;4.392;2022-11-09T06:00:26;12.90;99.90
43679;DHT22;29279;50.858;4.392;2022-11-09T06:02:52;12.90;99.90
43679;DHT22;29279;50.858;4.392;2022-11-09T06:05:17;12.80;99.90
43679;DHT22;29279;50.858;4.392;2022-11-09T06:07:44;12.90;99.90
43679;DHT22;29279;50.858;4.392;2022-11-09T06:10:10;13.00;99.90
43679;DHT22;29279;50.858;4.392;2022-11-09T06:12:36;12.90;99.90
43679;DHT22;29279;50.858;4.392;2022-11-09T06:15:02;12.90;99.90
43679;DHT22;29279;50.858;4.392;2022-11-09T06:17:28;12.90;99.90
43679;DHT22;29279;50.858;4.392;2022-11-09T06:19:54;12.70;99.90
43679;DHT22;29279;50.858;4.392;2022-11-09T06:22:19;12.70;99.90
43679;DHT22;29279;50.858;4.392;2022-11-09T06:24:45;12.70;99.90
43679;DHT22;29279;50.858;4.392;2022-11-09T06:27:11;12.70;99.90
43679;DHT22;29279;50.858;4.392;2022-11-09T06:29:36;12.70;99.90
43679;DHT22;29279;50.858;4.392;2022-11-09T06:32:02;12.60;99.90
43679;DHT22;29279;50.858;4.392;2022-11-09T06:34:28;12.80;99.90
43679;DHT22;29279;50.858;4.392;2022-11-09T06:36:55;12.80;99.90
43679;DHT22;29279;50.858;4.392;2022-11-09T06:39:20;12.80;99.90
43679;DHT22;29279;50.858;4.392;2022-11-09T06:41:46;12.80;99.90
43679;DHT22;29279;50.858;4.392;2022-11-09T06:44:12;12.70;99.90
43679;DHT22;29279;50.858;4.392;2022-11-09T06:46:38;12.70;99.90
43679;DHT22;29279;50.858;4.392;2022-11-09T06:49:03;12.80;99.90
43679;DHT22;29279;50.858;4.392;2022-11-09T06:51:29;12.70;99.90
43679;DHT22;29279;50.858;4.392;2022-11-09T06:53:56;12.70;99.90
43679;DHT22;29279;50.858;4.392;2022-11-09T06:56:21;12.80;99.90
43679;DHT22;29279;50.858;4.392;2022-11-09T06:58:47;12.70;99.90
43679;DHT22;29279;50.858;4.392;2022-11-09T07:01:16;12.70;99.90
43679;DHT22;29279;50.858;4.392;2022-11-09T07:03:42;12.80;99.90
43679;DHT22;29279;50.858;4.392;2022-11-09T07:06:10;12.70;99.90
43679;DHT22;29279;50.858;4.392;2022-11-09T07:08:36;12.80;99.90
43679;DHT22;29279;50.858;4.392;2022-11-09T07:13:29;12.70;99.90
43679;DHT22;29279;50.858;4.392;2022-11-09T07:15:55;12.70;99.90
43679;DHT22;29279;50.858;4.392;2022-11-09T07:18:20;12.70;99.90
43679;DHT22;29279;50.858;4.392;2022-11-09T07:20:46;12.80;99.90
43679;DHT22;29279;50.858;4.392;2022-11-09T07:23:12;12.80;99.90
43679;DHT22;29279;50.858;4.392;2022-11-09T07:25:37;12.90;99.90
43679;DHT22;29279;50.858;4.392;2022-11-09T07:28:04;12.90;99.90
43679;DHT22;29279;50.858;4.392;2022-11-09T07:30:32;13.00;99.90
43679;DHT22;29279;50.858;4.392;2022-11-09T07:32:57;13.10;99.90
43679;DHT22;29279;50.858;4.392;2022-11-09T07:35:25;13.20;99.90
43679;DHT22;29279;50.858;4.392;2022-11-09T07:37:51;13.20;99.90
43679;DHT22;29279;50.858;4.392;2022-11-09T07:40:17;13.20;99.90
43679;DHT22;29279;50.858;4.392;2022-11-09T07:42:42;13.30;99.90
43679;DHT22;29279;50.858;4.392;2022-11-09T07:45:08;13.50;99.90
43679;DHT22;29279;50.858;4.392;2022-11-09T07:47:34;13.50;99.90
43679;DHT22;29279;50.858;4.392;2022-11-09T07:50:00;13.50;99.90
43679;DHT22;29279;50.858;4.392;2022-11-09T07:52:25;13.70;99.90
43679;DHT22;29279;50.858;4.392;2022-11-09T07:54:51;13.80;99.90
43679;DHT22;29279;50.858;4.392;2022-11-09T07:57:17;13.80;99.90
43679;DHT22;29279;50.858;4.392;2022-11-09T07:59:42;13.90;99.90
43679;DHT22;29279;50.858;4.392;2022-11-09T08:02:09;14.00;99.90
43679;DHT22;29279;50.858;4.392;2022-11-09T08:04:34;14.50;99.90
43679;DHT22;29279;50.858;4.392;2022-11-09T08:07:00;14.80;99.90
43679;DHT22;29279;50.858;4.392;2022-11-09T08:09:27;15.10;99.90
43679;DHT22;29279;50.858;4.392;2022-11-09T08:11:52;15.70;99.90
43679;DHT22;29279;50.858;4.392;2022-11-09T08:14:18;16.20;99.90
43679;DHT22;29279;50.858;4.392;2022-11-09T08:16:44;16.10;99.90
43679;DHT22;29279;50.858;4.392;2022-11-09T08:19:09;16.20;99.90
43679;DHT22;29279;50.858;4.392;2022-11-09T08:21:38;16.50;99.90
43679;DHT22;29279;50.858;4.392;2022-11-09T08:24:04;16.70;99.90
43679;DHT22;29279;50.858;4.392;2022-11-09T08:26:31;17.20;99.90
43679;DHT22;29279;50.858;4.392;2022-11-09T08:28:56;17.40;99.90
43679;DHT22;29279;50.858;4.392;2022-11-09T08:31:22;17.30;99.90
43679;DHT22;29279;50.858;4.392;2022-11-09T08:33:48;17.20;99.90
43679;DHT22;29279;50.858;4.392;2022-11-09T08:36:16;17.00;99.90
43679;DHT22;29279;50.858;4.392;2022-11-09T08:38:43;17.10;99.90
43679;DHT22;29279;50.858;4.392;2022-11-09T08:41:10;16.70;99.90
43679;DHT22;29279;50.858;4.392;2022-11-09T08:43:36;16.70;99.90
43679;DHT22;29279;50.858;4.392;2022-11-09T08:46:02;17.00;99.90
43679;DHT22;29279;50.858;4.392;2022-11-09T08:48:28;17.50;99.90
43679;DHT22;29279;50.858;4.392;2022-11-09T08:50:56;17.90;99.90
43679;DHT22;29279;50.858;4.392;2022-11-09T08:53:24;18.20;99.90
43679;DHT22;29279;50.858;4.392;2022-11-09T08:55:50;18.50;99.90
43679;DHT22;29279;50.858;4.392;2022-11-09T08:58:16;18.30;99.90
43679;DHT22;29279;50.858;4.392;2022-11-09T09:00:42;18.10;99.90
43679;DHT22;29279;50.858;4.392;2022-11-09T09:03:08;18.00;99.90
43679;DHT22;29279;50.858;4.392;2022-11-09T09:05:34;17.60;99.90
43679;DHT22;29279;50.858;4.392;2022-11-09T09:08:01;17.50;99.90
43679;DHT22;29279;50.858;4.392;2022-11-09T09:10:27;17.90;99.90
43679;DHT22;29279;50.858;4.392;2022-11-09T09:12:53;17.90;99.90
43679;DHT22;29279;50.858;4.392;2022-11-09T09:15:20;17.20;99.90
43679;DHT22;29279;50.858;4.392;2022-11-09T09:17:46;17.00;99.90
43679;DHT22;29279;50.858;4.392;2022-11-09T09:20:12;16.50;99.90
43679;DHT22;29279;50.858;4.392;2022-11-09T09:22:38;16.80;99.90
43679;DHT22;29279;50.858;4.392;2022-11-09T09:25:05;17.20;99.90
43679;DHT22;29279;50.858;4.392;2022-11-09T09:27:31;17.20;99.90
43679;DHT22;29279;50.858;4.392;2022-11-09T09:29:57;17.40;99.90
43679;DHT22;29279;50.858;4.392;2022-11-09T09:32:23;17.20;99.90
43679;DHT22;29279;50.858;4.392;2022-11-09T09:34:49;17.20;99.90
43679;DHT22;29279;50.858;4.392;2022-11-09T09:37:15;16.90;99.90
43679;DHT22;29279;50.858;4.392;2022-11-09T09:39:42;17.30;99.90
43679;DHT22;29279;50.858;4.392;2022-11-09T09:42:22;18.30;99.90
43679;DHT22;29279;50.858;4.392;2022-11-09T09:44:55;19.20;99.90
43679;DHT22;29279;50.858;4.392;2022-11-09T09:50:04;20.20;99.90
43679;DHT22;29279;50.858;4.392;2022-11-09T09:52:41;21.00;99.90
43679;DHT22;29279;50.858;4.392;2022-11-09T09:55:26;19.60;99.90
43679;DHT22;29279;50.858;4.392;2022-11-09T09:57:54;19.20;99.90
43679;DHT22;29279;50.858;4.392;2022-11-09T10:00:26;19.40;99.90
43679;DHT22;29279;50.858;4.392;2022-11-09T10:02:53;18.40;99.90
43679;DHT22;29279;50.858;4.392;2022-11-09T10:05:20;17.60;99.90
43679;DHT22;29279;50.858;4.392;2022-11-09T10:08:15;17.10;99.90
43679;DHT22;29279;50.858;4.392;2022-11-09T10:11:08;16.80;99.90
43679;DHT22;29279;50.858;4.392;2022-11-09T10:14:21;16.20;99.90
43679;DHT22;29279;50.858;4.392;2022-11-09T10:22:07;15.40;99.90
43679;DHT22;29279;50.858;4.392;2022-11-09T10:25:00;15.10;99.90
43679;DHT22;29279;50.858;4.392;2022-11-09T10:27:49;15.10;99.90
43679;DHT22;29279;50.858;4.392;2022-11-09T10:30:18;15.10;99.90
43679;DHT22;29279;50.858;4.392;2022-11-09T10:32:47;15.30;99.90
43679;DHT22;29279;50.858;4.392;2022-11-09T10:35:19;16.20;99.90
43679;DHT22;29279;50.858;4.392;2022-11-09T10:37:47;15.80;99.90
43679;DHT22;29279;50.858;4.392;2022-11-09T10:42:54;15.20;99.90
43679;DHT22;29279;50.858;4.392;2022-11-09T10:45:32;14.90;99.90
43679;DHT22;29279;50.858;4.392;2022-11-09T10:47:59;14.70;99.90
43679;DHT22;29279;50.858;4.392;2022-11-09T10:50:38;14.60;99.90
43679;DHT22;29279;50.858;4.392;2022-11-09T10:56:03;14.50;99.90
43679;DHT22;29279;50.858;4.392;2022-11-09T10:58:50;14.50;99.90
43679;DHT22;29279;50.858;4.392;2022-11-09T11:01:24;15.30;99.90
43679;DHT22;29279;50.858;4.392;2022-11-09T11:03:52;16.10;99.90
43679;DHT22;29279;50.858;4.392;2022-11-09T11:08:49;15.80;99.90
43679;DHT22;29279;50.858;4.392;2022-11-09T11:11:29;15.40;99.90
43679;DHT22;29279;50.858;4.392;2022-11-09T11:14:32;15.20;99.90
43679;DHT22;29279;50.858;4.392;2022-11-09T11:16:58;15.10;99.90
43679;DHT22;29279;50.858;4.392;2022-11-09T11:19:38;14.80;99.90
43679;DHT22;29279;50.858;4.392;2022-11-09T11:22:15;14.80;99.90
43679;DHT22;29279;50.858;4.392;2022-11-09T11:24:58;14.80;99.90
43679;DHT22;29279;50.858;4.392;2022-11-09T11:27:42;14.80;99.90
43679;DHT22;29279;50.858;4.392;2022-11-09T11:30:25;14.60;99.90
43679;DHT22;29279;50.858;4.392;2022-11-09T11:32:56;14.50;99.90
43679;DHT22;29279;50.858;4.392;2022-11-09T11:35:55;14.50;99.90
43679;DHT22;29279;50.858;4.392;2022-11-09T11:46:45;14.70;99.90
43679;DHT22;29279;50.858;4.392;2022-11-09T11:49:40;14.80;99.90
43679;DHT22;29279;50.858;4.392;2022-11-09T12:00:28;14.80;99.90
43679;DHT22;29279;50.858;4.392;2022-11-09T12:05:53;14.70;99.90
43679;DHT22;29279;50.858;4.392;2022-11-09T12:16:56;14.20;99.90
43679;DHT22;29279;50.858;4.392;2022-11-09T12:24:35;13.20;99.90
43679;DHT22;29279;50.858;4.392;2022-11-09T12:30:05;12.60;99.90
43679;DHT22;29279;50.858;4.392;2022-11-09T12:32:55;12.40;99.90
43679;DHT22;29279;50.858;4.392;2022-11-09T12:35:37;12.40;99.90
43679;DHT22;29279;50.858;4.392;2022-11-09T12:40:44;13.20;99.90
43679;DHT22;29279;50.858;4.392;2022-11-09T12:43:38;14.30;99.90
43679;DHT22;29279;50.858;4.392;2022-11-09T12:46:06;14.70;99.90
43679;DHT22;29279;50.858;4.392;2022-11-09T12:48:34;14.60;99.90
43679;DHT22;29279;50.858;4.392;2022-11-09T12:51:02;15.00;99.90
43679;DHT22;29279;50.858;4.392;2022-11-09T12:53:36;16.10;99.90
43679;DHT22;29279;50.858;4.392;2022-11-09T12:58:36;17.70;99.90
43679;DHT22;29279;50.858;4.392;2022-11-09T13:01:05;18.40;99.90
43679;DHT22;29279;50.858;4.392;2022-11-09T13:03:37;18.90;99.90
43679;DHT22;29279;50.858;4.392;2022-11-09T13:06:19;18.10;99.90
43679;DHT22;29279;50.858;4.392;2022-11-09T13:11:44;16.70;99.90
43679;DHT22;29279;50.858;4.392;2022-11-09T13:16:51;18.00;99.90
43679;DHT22;29279;50.858;4.392;2022-11-09T13:29:58;18.30;99.90
43679;DHT22;29279;50.858;4.392;2022-11-09T13:37:36;18.70;99.90
43679;DHT22;29279;50.858;4.392;2022-11-09T13:43:04;17.00;99.90
43679;DHT22;29279;50.858;4.392;2022-11-09T13:47:59;16.10;99.90
43679;DHT22;29279;50.858;4.392;2022-11-09T13:50:30;15.80;99.90
43679;DHT22;29279;50.858;4.392;2022-11-09T13:53:00;15.50;99.90
43679;DHT22;29279;50.858;4.392;2022-11-09T13:55:39;15.50;99.90
43679;DHT22;29279;50.858;4.392;2022-11-09T14:00:36;15.30;99.90
43679;DHT22;29279;50.858;4.392;2022-11-09T14:03:15;15.00;99.90
43679;DHT22;29279;50.858;4.392;2022-11-09T14:05:41;14.70;99.90
43679;DHT22;29279;50.858;4.392;2022-11-09T14:08:33;14.50;99.90
43679;DHT22;29279;50.858;4.392;2022-11-09T14:14:16;14.30;99.90
43679;DHT22;29279;50.858;4.392;2022-11-09T14:16:50;14.20;99.90
43679;DHT22;29279;50.858;4.392;2022-11-09T14:19:44;14.10;99.90
43679;DHT22;29279;50.858;4.392;2022-11-09T14:22:17;13.90;99.90
43679;DHT22;29279;50.858;4.392;2022-11-09T14:24:43;13.70;99.90
43679;DHT22;29279;50.858;4.392;2022-11-09T14:29:37;13.50;99.90
43679;DHT22;29279;50.858;4.392;2022-11-09T14:32:27;13.40;99.90
43679;DHT22;29279;50.858;4.392;2022-11-09T14:35:18;13.40;99.90
43679;DHT22;29279;50.858;4.392;2022-11-09T14:37:46;13.80;99.90
43679;DHT22;29279;50.858;4.392;2022-11-09T14:42:48;13.70;99.90
43679;DHT22;29279;50.858;4.392;2022-11-09T14:45:16;13.60;99.90
43679;DHT22;29279;50.858;4.392;2022-11-09T14:47:45;14.10;99.90
43679;DHT22;29279;50.858;4.392;2022-11-09T14:50:21;15.00;99.90
43679;DHT22;29279;50.858;4.392;2022-11-09T14:52:49;16.00;99.90
43679;DHT22;29279;50.858;4.392;2022-11-09T14:55:17;16.50;99.90
43679;DHT22;29279;50.858;4.392;2022-11-09T14:57:44;16.60;99.90
43679;DHT22;29279;50.858;4.392;2022-11-09T15:00:40;16.50;99.90
43679;DHT22;29279;50.858;4.392;2022-11-09T15:03:26;16.40;99.90
43679;DHT22;29279;50.858;4.392;2022-11-09T15:06:10;16.50;99.90
43679;DHT22;29279;50.858;4.392;2022-11-09T15:08:44;16.30;99.90
43679;DHT22;29279;50.858;4.392;2022-11-09T15:11:13;16.00;99.90
43679;DHT22;29279;50.858;4.392;2022-11-09T15:13:40;15.60;99.90
43679;DHT22;29279;50.858;4.392;2022-11-09T15:16:06;15.50;99.90
43679;DHT22;29279;50.858;4.392;2022-11-09T15:18:34;15.70;99.90
43679;DHT22;29279;50.858;4.392;2022-11-09T15:21:20;15.70;99.90
43679;DHT22;29279;50.858;4.392;2022-11-09T15:24:12;15.60;99.90
43679;DHT22;29279;50.858;4.392;2022-11-09T15:26:47;15.50;99.90
43679;DHT22;29279;50.858;4.392;2022-11-09T15:29:41;15.30;99.90
43679;DHT22;29279;50.858;4.392;2022-11-09T15:32:14;15.20;99.90
43679;DHT22;29279;50.858;4.392;2022-11-09T15:34:41;15.00;99.90
43679;DHT22;29279;50.858;4.392;2022-11-09T15:37:20;14.80;99.90
43679;DHT22;29279;50.858;4.392;2022-11-09T15:39:47;14.70;99.90
43679;DHT22;29279;50.858;4.392;2022-11-09T15:42:13;14.40;99.90
43679;DHT22;29279;50.858;4.392;2022-11-09T15:44:38;14.20;99.90
43679;DHT22;29279;50.858;4.392;2022-11-09T15:47:34;14.10;99.90
43679;DHT22;29279;50.858;4.392;2022-11-09T15:50:06;14.00;99.90
43679;DHT22;29279;50.858;4.392;2022-11-09T15:52:32;13.80;99.90
43679;DHT22;29279;50.858;4.392;2022-11-09T15:54:57;13.80;99.90
43679;DHT22;29279;50.858;4.392;2022-11-09T15:57:23;13.70;99.90
43679;DHT22;29279;50.858;4.392;2022-11-09T15:59:49;13.60;99.90
43679;DHT22;29279;50.858;4.392;2022-11-09T16:02:16;13.60;99.90
43679;DHT22;29279;50.858;4.392;2022-11-09T16:04:43;13.60;99.90
43679;DHT22;29279;50.858;4.392;2022-11-09T16:07:12;13.70;99.90
43679;DHT22;29279;50.858;4.392;2022-11-09T16:09:39;13.60;99.90
43679;DHT22;29279;50.858;4.392;2022-11-09T16:12:05;13.70;99.90
43679;DHT22;29279;50.858;4.392;2022-11-09T16:14:31;13.50;99.90
43679;DHT22;29279;50.858;4.392;2022-11-09T16:16:58;13.60;99.90
43679;DHT22;29279;50.858;4.392;2022-11-09T16:19:24;13.60;99.90
43679;DHT22;29279;50.858;4.392;2022-11-09T16:21:53;13.70;99.90
43679;DHT22;29279;50.858;4.392;2022-11-09T16:24:19;13.70;99.90
43679;DHT22;29279;50.858;4.392;2022-11-09T16:26:45;13.60;99.90
43679;DHT22;29279;50.858;4.392;2022-11-09T16:29:12;13.60;99.90
43679;DHT22;29279;50.858;4.392;2022-11-09T16:31:38;13.50;99.90
43679;DHT22;29279;50.858;4.392;2022-11-09T16:34:04;13.40;99.90
43679;DHT22;29279;50.858;4.392;2022-11-09T16:36:30;13.20;99.90
43679;DHT22;29279;50.858;4.392;2022-11-09T16:38:56;13.10;99.90
43679;DHT22;29279;50.858;4.392;2022-11-09T16:41:23;12.90;99.90
43679;DHT22;29279;50.858;4.392;2022-11-09T16:43:51;12.80;99.90
43679;DHT22;29279;50.858;4.392;2022-11-09T16:46:22;12.80;99.90
43679;DHT22;29279;50.858;4.392;2022-11-09T16:48:49;12.80;99.90
43679;DHT22;29279;50.858;4.392;2022-11-09T16:51:16;12.80;99.90
43679;DHT22;29279;50.858;4.392;2022-11-09T16:53:42;12.70;99.90
43679;DHT22;29279;50.858;4.392;2022-11-09T16:56:08;12.70;99.90
43679;DHT22;29279;50.858;4.392;2022-11-09T16:58:33;12.70;99.90
43679;DHT22;29279;50.858;4.392;2022-11-09T17:00:59;12.60;99.90
43679;DHT22;29279;50.858;4.392;2022-11-09T17:03:25;12.60;99.90
43679;DHT22;29279;50.858;4.392;2022-11-09T17:05:50;12.70;99.90
43679;DHT22;29279;50.858;4.392;2022-11-09T17:08:16;12.80;99.90
43679;DHT22;29279;50.858;4.392;2022-11-09T17:10:45;12.80;99.90
43679;DHT22;29279;50.858;4.392;2022-11-09T17:13:12;12.80;99.90
43679;DHT22;29279;50.858;4.392;2022-11-09T17:15:41;12.80;99.90
43679;DHT22;29279;50.858;4.392;2022-11-09T17:18:07;12.80;99.90
43679;DHT22;29279;50.858;4.392;2022-11-09T17:20:41;12.80;99.90
43679;DHT22;29279;50.858;4.392;2022-11-09T17:23:07;12.70;99.90